sensor_id;sensor_type;location;lat;lon;timestamp;P1;durP1;ratioP1;P2;durP2;ratioP2
32365;SDS011;18837;46.832;16.838;2023-01-15T00:00:34;11.10;;;8.30;;
32365;SDS011;18837;46.832;16.838;2023-01-15T00:02:59;11.60;;;8.67;;
32365;SDS011;18837;46.832;16.838;2023-01-15T00:05:34;10.17;;;8.33;;
32365;SDS011;18837;46.832;16.838;2023-01-15T00:08:00;11.27;;;8.47;;
32365;SDS011;18837;46.832;16.838;2023-01-15T00:10:26;10.53;;;8.23;;
32365;SDS011;18837;46.832;16.838;2023-01-15T00:12:52;9.33;;;8.00;;
32365;SDS011;18837;46.832;16.838;2023-01-15T00:15:18;10.17;;;8.20;;
32365;SDS011;18837;46.832;16.838;2023-01-15T00:17:44;11.00;;;7.97;;
32365;SDS011;18837;46.832;16.838;2023-01-15T00:20:10;11.67;;;8.17;;
32365;SDS011;18837;46.832;16.838;2023-01-15T00:25:35;11.77;;;8.07;;
32365;SDS011;18837;46.832;16.838;2023-01-15T00:28:19;8.83;;;7.43;;
32365;SDS011;18837;46.832;16.838;2023-01-15T00:30:45;11.37;;;7.43;;
32365;SDS011;18837;46.832;16.838;2023-01-15T00:33:11;10.20;;;7.30;;
32365;SDS011;18837;46.832;16.838;2023-01-15T00:35:37;10.67;;;7.97;;
32365;SDS011;18837;46.832;16.838;2023-01-15T00:38:02;9.40;;;7.40;;
32365;SDS011;18837;46.832;16.838;2023-01-15T00:40:33;9.10;;;6.90;;
32365;SDS011;18837;46.832;16.838;2023-01-15T00:42:59;9.73;;;6.93;;
32365;SDS011;18837;46.832;16.838;2023-01-15T00:45:25;9.23;;;7.47;;
32365;SDS011;18837;46.832;16.838;2023-01-15T00:47:50;10.13;;;6.83;;
32365;SDS011;18837;46.832;16.838;2023-01-15T00:50:16;8.37;;;6.53;;
32365;SDS011;18837;46.832;16.838;2023-01-15T00:52:42;9.93;;;7.57;;
32365;SDS011;18837;46.832;16.838;2023-01-15T00:55:17;8.10;;;6.80;;
32365;SDS011;18837;46.832;16.838;2023-01-15T01:00:55;7.87;;;6.50;;
32365;SDS011;18837;46.832;16.838;2023-01-15T01:03:22;8.47;;;6.70;;
32365;SDS011;18837;46.832;16.838;2023-01-15T01:05:48;8.67;;;6.63;;
32365;SDS011;18837;46.832;16.838;2023-01-15T01:08:14;9.13;;;6.97;;
32365;SDS011;18837;46.832;16.838;2023-01-15T01:10:40;8.63;;;6.67;;
32365;SDS011;18837;46.832;16.838;2023-01-15T01:13:06;9.13;;;6.83;;
32365;SDS011;18837;46.832;16.838;2023-01-15T01:15:37;8.20;;;6.93;;
32365;SDS011;18837;46.832;16.838;2023-01-15T01:18:03;9.73;;;6.30;;
32365;SDS011;18837;46.832;16.838;2023-01-15T01:20:30;7.93;;;6.30;;
32365;SDS011;18837;46.832;16.838;2023-01-15T01:22:57;7.67;;;6.10;;
32365;SDS011;18837;46.832;16.838;2023-01-15T01:25:23;7.10;;;5.83;;
32365;SDS011;18837;46.832;16.838;2023-01-15T01:27:49;8.30;;;6.57;;
32365;SDS011;18837;46.832;16.838;2023-01-15T01:30:33;8.33;;;6.50;;
32365;SDS011;18837;46.832;16.838;2023-01-15T01:33:10;7.07;;;6.17;;
32365;SDS011;18837;46.832;16.838;2023-01-15T01:35:39;7.50;;;5.80;;
32365;SDS011;18837;46.832;16.838;2023-01-15T01:38:15;6.50;;;5.80;;
32365;SDS011;18837;46.832;16.838;2023-01-15T01:40:41;6.87;;;5.80;;
32365;SDS011;18837;46.832;16.838;2023-01-15T01:43:17;7.57;;;5.90;;
32365;SDS011;18837;46.832;16.838;2023-01-15T01:45:51;7.77;;;6.10;;
32365;SDS011;18837;46.832;16.838;2023-01-15T01:48:17;7.27;;;5.53;;
32365;SDS011;18837;46.832;16.838;2023-01-15T01:50:52;7.67;;;5.97;;
32365;SDS011;18837;46.832;16.838;2023-01-15T01:53:24;7.10;;;5.37;;
32365;SDS011;18837;46.832;16.838;2023-01-15T01:55:53;7.33;;;5.97;;
32365;SDS011;18837;46.832;16.838;2023-01-15T01:58:20;6.63;;;5.20;;
32365;SDS011;18837;46.832;16.838;2023-01-15T02:00:48;6.03;;;5.43;;
32365;SDS011;18837;46.832;16.838;2023-01-15T02:03:16;6.67;;;5.47;;
32365;SDS011;18837;46.832;16.838;2023-01-15T02:09:05;6.87;;;5.63;;
32365;SDS011;18837;46.832;16.838;2023-01-15T02:11:31;8.13;;;5.47;;
32365;SDS011;18837;46.832;16.838;2023-01-15T02:13:59;7.60;;;5.57;;
32365;SDS011;18837;46.832;16.838;2023-01-15T02:16:30;5.70;;;5.00;;
32365;SDS011;18837;46.832;16.838;2023-01-15T02:28:15;6.33;;;5.10;;
32365;SDS011;18837;46.832;16.838;2023-01-15T02:30:48;5.80;;;5.17;;
32365;SDS011;18837;46.832;16.838;2023-01-15T02:33:25;6.47;;;4.90;;
32365;SDS011;18837;46.832;16.838;2023-01-15T02:35:57;6.50;;;4.47;;
32365;SDS011;18837;46.832;16.838;2023-01-15T02:38:26;6.43;;;4.80;;
32365;SDS011;18837;46.832;16.838;2023-01-15T02:41:32;4.87;;;4.13;;
32365;SDS011;18837;46.832;16.838;2023-01-15T02:44:39;5.83;;;4.80;;
32365;SDS011;18837;46.832;16.838;2023-01-15T02:47:09;5.90;;;4.67;;
32365;SDS011;18837;46.832;16.838;2023-01-15T02:49:36;6.83;;;4.30;;
32365;SDS011;18837;46.832;16.838;2023-01-15T02:52:16;6.00;;;4.40;;
32365;SDS011;18837;46.832;16.838;2023-01-15T02:54:49;4.97;;;4.17;;
32365;SDS011;18837;46.832;16.838;2023-01-15T02:57:22;4.83;;;3.83;;
32365;SDS011;18837;46.832;16.838;2023-01-15T02:59:55;5.57;;;4.23;;
32365;SDS011;18837;46.832;16.838;2023-01-15T03:02:27;6.80;;;4.70;;
32365;SDS011;18837;46.832;16.838;2023-01-15T03:04:59;5.07;;;4.13;;
32365;SDS011;18837;46.832;16.838;2023-01-15T03:07:51;5.10;;;3.77;;
32365;SDS011;18837;46.832;16.838;2023-01-15T03:10:29;5.83;;;4.30;;
32365;SDS011;18837;46.832;16.838;2023-01-15T03:20:08;6.97;;;4.53;;
32365;SDS011;18837;46.832;16.838;2023-01-15T03:22:42;6.80;;;4.20;;
32365;SDS011;18837;46.832;16.838;2023-01-15T03:27:40;5.43;;;3.80;;
32365;SDS011;18837;46.832;16.838;2023-01-15T03:30:08;4.67;;;4.00;;
32365;SDS011;18837;46.832;16.838;2023-01-15T03:32:56;5.60;;;4.23;;
32365;SDS011;18837;46.832;16.838;2023-01-15T03:35:39;6.87;;;4.20;;
32365;SDS011;18837;46.832;16.838;2023-01-15T03:38:13;5.13;;;4.23;;
32365;SDS011;18837;46.832;16.838;2023-01-15T03:40:58;4.88;;;4.35;;
32365;SDS011;18837;46.832;16.838;2023-01-15T03:43:35;5.40;;;3.93;;
32365;SDS011;18837;46.832;16.838;2023-01-15T03:46:06;4.50;;;3.90;;
32365;SDS011;18837;46.832;16.838;2023-01-15T03:55:13;5.70;;;3.90;;
32365;SDS011;18837;46.832;16.838;2023-01-15T03:58:04;4.73;;;3.87;;
32365;SDS011;18837;46.832;16.838;2023-01-15T04:00:39;4.93;;;3.90;;
32365;SDS011;18837;46.832;16.838;2023-01-15T04:03:08;5.33;;;4.00;;
32365;SDS011;18837;46.832;16.838;2023-01-15T04:05:36;4.90;;;4.07;;
32365;SDS011;18837;46.832;16.838;2023-01-15T04:08:07;6.00;;;3.30;;
32365;SDS011;18837;46.832;16.838;2023-01-15T04:10:34;5.07;;;3.43;;
32365;SDS011;18837;46.832;16.838;2023-01-15T04:12:59;5.43;;;4.10;;
32365;SDS011;18837;46.832;16.838;2023-01-15T04:15:25;5.10;;;4.07;;
32365;SDS011;18837;46.832;16.838;2023-01-15T04:17:51;4.43;;;4.00;;
32365;SDS011;18837;46.832;16.838;2023-01-15T04:20:17;4.30;;;3.60;;
32365;SDS011;18837;46.832;16.838;2023-01-15T04:28:17;5.07;;;3.87;;
32365;SDS011;18837;46.832;16.838;2023-01-15T04:30:43;4.17;;;3.30;;
32365;SDS011;18837;46.832;16.838;2023-01-15T04:33:09;5.27;;;3.90;;
32365;SDS011;18837;46.832;16.838;2023-01-15T04:35:36;5.13;;;3.83;;
32365;SDS011;18837;46.832;16.838;2023-01-15T04:38:02;4.40;;;3.60;;
32365;SDS011;18837;46.832;16.838;2023-01-15T04:40:27;4.70;;;3.33;;
32365;SDS011;18837;46.832;16.838;2023-01-15T04:43:18;4.17;;;3.57;;
32365;SDS011;18837;46.832;16.838;2023-01-15T04:46:22;5.43;;;3.80;;
32365;SDS011;18837;46.832;16.838;2023-01-15T04:48:49;4.77;;;3.90;;
32365;SDS011;18837;46.832;16.838;2023-01-15T04:51:15;4.33;;;3.37;;
32365;SDS011;18837;46.832;16.838;2023-01-15T04:53:41;5.27;;;3.43;;
32365;SDS011;18837;46.832;16.838;2023-01-15T04:56:07;4.60;;;3.80;;
32365;SDS011;18837;46.832;16.838;2023-01-15T05:01:57;4.70;;;3.30;;
32365;SDS011;18837;46.832;16.838;2023-01-15T05:04:22;4.23;;;3.50;;
32365;SDS011;18837;46.832;16.838;2023-01-15T05:06:48;3.90;;;3.50;;
32365;SDS011;18837;46.832;16.838;2023-01-15T05:09:14;4.87;;;3.47;;
32365;SDS011;18837;46.832;16.838;2023-01-15T05:11:40;5.40;;;3.43;;
32365;SDS011;18837;46.832;16.838;2023-01-15T05:14:06;5.07;;;3.23;;
32365;SDS011;18837;46.832;16.838;2023-01-15T05:16:43;5.00;;;3.80;;
32365;SDS011;18837;46.832;16.838;2023-01-15T05:19:09;4.90;;;3.67;;
32365;SDS011;18837;46.832;16.838;2023-01-15T05:24:14;3.50;;;3.20;;
32365;SDS011;18837;46.832;16.838;2023-01-15T05:26:41;4.93;;;3.77;;
32365;SDS011;18837;46.832;16.838;2023-01-15T05:29:08;4.03;;;3.10;;
32365;SDS011;18837;46.832;16.838;2023-01-15T05:31:41;3.53;;;3.03;;
32365;SDS011;18837;46.832;16.838;2023-01-15T05:37:08;4.03;;;3.23;;
32365;SDS011;18837;46.832;16.838;2023-01-15T05:39:34;3.30;;;2.90;;
32365;SDS011;18837;46.832;16.838;2023-01-15T05:42:00;4.20;;;3.03;;
32365;SDS011;18837;46.832;16.838;2023-01-15T05:44:27;3.30;;;2.83;;
32365;SDS011;18837;46.832;16.838;2023-01-15T05:46:56;4.63;;;3.40;;
32365;SDS011;18837;46.832;16.838;2023-01-15T05:49:24;4.27;;;3.13;;
32365;SDS011;18837;46.832;16.838;2023-01-15T05:52:01;4.33;;;3.40;;
32365;SDS011;18837;46.832;16.838;2023-01-15T05:54:28;4.67;;;3.33;;
32365;SDS011;18837;46.832;16.838;2023-01-15T05:56:54;5.23;;;3.40;;
32365;SDS011;18837;46.832;16.838;2023-01-15T05:59:22;5.33;;;3.20;;
32365;SDS011;18837;46.832;16.838;2023-01-15T06:01:49;4.43;;;3.53;;
32365;SDS011;18837;46.832;16.838;2023-01-15T06:04:16;4.00;;;3.17;;
32365;SDS011;18837;46.832;16.838;2023-01-15T06:12:27;4.20;;;3.17;;
32365;SDS011;18837;46.832;16.838;2023-01-15T06:14:52;5.10;;;3.50;;
32365;SDS011;18837;46.832;16.838;2023-01-15T06:17:18;6.77;;;3.90;;
32365;SDS011;18837;46.832;16.838;2023-01-15T06:19:44;5.10;;;3.43;;
32365;SDS011;18837;46.832;16.838;2023-01-15T06:22:10;5.73;;;4.00;;
32365;SDS011;18837;46.832;16.838;2023-01-15T06:24:36;5.80;;;3.97;;
32365;SDS011;18837;46.832;16.838;2023-01-15T06:27:10;5.13;;;3.70;;
32365;SDS011;18837;46.832;16.838;2023-01-15T06:29:36;4.53;;;3.40;;
32365;SDS011;18837;46.832;16.838;2023-01-15T06:32:02;4.23;;;3.20;;
32365;SDS011;18837;46.832;16.838;2023-01-15T06:34:28;5.07;;;3.40;;
32365;SDS011;18837;46.832;16.838;2023-01-15T06:36:53;4.30;;;3.43;;
32365;SDS011;18837;46.832;16.838;2023-01-15T06:39:19;4.73;;;4.00;;
32365;SDS011;18837;46.832;16.838;2023-01-15T06:48:13;4.30;;;3.50;;
32365;SDS011;18837;46.832;16.838;2023-01-15T06:50:39;4.70;;;3.60;;
32365;SDS011;18837;46.832;16.838;2023-01-15T06:53:04;4.00;;;3.47;;
32365;SDS011;18837;46.832;16.838;2023-01-15T06:55:30;4.87;;;4.10;;
32365;SDS011;18837;46.832;16.838;2023-01-15T06:57:56;4.17;;;3.67;;
32365;SDS011;18837;46.832;16.838;2023-01-15T07:00:28;5.70;;;3.63;;
32365;SDS011;18837;46.832;16.838;2023-01-15T07:02:54;4.33;;;3.57;;
32365;SDS011;18837;46.832;16.838;2023-01-15T07:05:20;5.20;;;4.00;;
32365;SDS011;18837;46.832;16.838;2023-01-15T07:07:45;4.70;;;3.50;;
32365;SDS011;18837;46.832;16.838;2023-01-15T07:10:11;5.37;;;3.97;;
32365;SDS011;18837;46.832;16.838;2023-01-15T07:12:37;5.50;;;3.60;;
32365;SDS011;18837;46.832;16.838;2023-01-15T07:21:15;5.97;;;3.70;;
32365;SDS011;18837;46.832;16.838;2023-01-15T07:23:41;5.13;;;4.10;;
32365;SDS011;18837;46.832;16.838;2023-01-15T07:26:06;5.17;;;4.00;;
32365;SDS011;18837;46.832;16.838;2023-01-15T07:28:32;5.87;;;4.30;;
32365;SDS011;18837;46.832;16.838;2023-01-15T07:30:58;6.87;;;4.00;;
32365;SDS011;18837;46.832;16.838;2023-01-15T07:33:23;5.83;;;4.27;;
32365;SDS011;18837;46.832;16.838;2023-01-15T07:36:02;4.57;;;3.80;;
32365;SDS011;18837;46.832;16.838;2023-01-15T07:38:28;4.37;;;3.60;;
32365;SDS011;18837;46.832;16.838;2023-01-15T07:40:57;6.10;;;3.87;;
32365;SDS011;18837;46.832;16.838;2023-01-15T07:43:42;4.10;;;3.70;;
32365;SDS011;18837;46.832;16.838;2023-01-15T07:46:27;4.67;;;3.80;;
32365;SDS011;18837;46.832;16.838;2023-01-15T07:49:11;5.07;;;3.83;;
32365;SDS011;18837;46.832;16.838;2023-01-15T07:51:56;5.53;;;3.87;;
32365;SDS011;18837;46.832;16.838;2023-01-15T07:54:24;4.40;;;3.50;;
32365;SDS011;18837;46.832;16.838;2023-01-15T07:56:50;4.40;;;3.60;;
32365;SDS011;18837;46.832;16.838;2023-01-15T07:59:17;4.63;;;3.47;;
32365;SDS011;18837;46.832;16.838;2023-01-15T08:01:43;3.90;;;3.50;;
32365;SDS011;18837;46.832;16.838;2023-01-15T08:04:09;4.90;;;3.70;;
32365;SDS011;18837;46.832;16.838;2023-01-15T08:06:35;5.17;;;3.83;;
32365;SDS011;18837;46.832;16.838;2023-01-15T08:09:01;4.37;;;3.93;;
32365;SDS011;18837;46.832;16.838;2023-01-15T08:11:27;3.73;;;3.30;;
32365;SDS011;18837;46.832;16.838;2023-01-15T08:14:11;5.10;;;3.53;;
32365;SDS011;18837;46.832;16.838;2023-01-15T08:16:55;3.73;;;3.27;;
32365;SDS011;18837;46.832;16.838;2023-01-15T08:19:21;5.00;;;3.67;;
32365;SDS011;18837;46.832;16.838;2023-01-15T08:21:51;5.17;;;3.63;;
32365;SDS011;18837;46.832;16.838;2023-01-15T08:24:29;4.87;;;3.40;;
32365;SDS011;18837;46.832;16.838;2023-01-15T08:26:55;4.43;;;3.83;;
32365;SDS011;18837;46.832;16.838;2023-01-15T08:29:21;5.57;;;3.73;;
32365;SDS011;18837;46.832;16.838;2023-01-15T08:31:47;4.53;;;3.50;;
32365;SDS011;18837;46.832;16.838;2023-01-15T08:34:16;4.40;;;3.50;;
32365;SDS011;18837;46.832;16.838;2023-01-15T08:36:43;5.37;;;3.60;;
32365;SDS011;18837;46.832;16.838;2023-01-15T08:42:13;4.10;;;3.20;;
32365;SDS011;18837;46.832;16.838;2023-01-15T08:47:23;3.77;;;3.30;;
32365;SDS011;18837;46.832;16.838;2023-01-15T08:49:49;6.30;;;3.30;;
32365;SDS011;18837;46.832;16.838;2023-01-15T08:52:14;5.00;;;3.43;;
32365;SDS011;18837;46.832;16.838;2023-01-15T08:54:40;4.90;;;3.40;;
32365;SDS011;18837;46.832;16.838;2023-01-15T08:57:07;4.73;;;3.20;;
32365;SDS011;18837;46.832;16.838;2023-01-15T08:59:39;3.67;;;3.30;;
32365;SDS011;18837;46.832;16.838;2023-01-15T09:02:08;4.20;;;3.37;;
32365;SDS011;18837;46.832;16.838;2023-01-15T09:04:38;5.33;;;3.57;;
32365;SDS011;18837;46.832;16.838;2023-01-15T09:07:04;6.27;;;4.20;;
32365;SDS011;18837;46.832;16.838;2023-01-15T09:09:30;3.37;;;2.97;;
32365;SDS011;18837;46.832;16.838;2023-01-15T09:11:57;5.20;;;3.30;;
32365;SDS011;18837;46.832;16.838;2023-01-15T09:20:40;4.07;;;3.10;;
32365;SDS011;18837;46.832;16.838;2023-01-15T09:25:53;3.87;;;2.90;;
32365;SDS011;18837;46.832;16.838;2023-01-15T09:28:21;3.67;;;2.90;;
32365;SDS011;18837;46.832;16.838;2023-01-15T09:30:47;4.70;;;3.13;;
32365;SDS011;18837;46.832;16.838;2023-01-15T09:35:57;5.00;;;3.30;;
32365;SDS011;18837;46.832;16.838;2023-01-15T09:38:23;6.17;;;3.50;;
32365;SDS011;18837;46.832;16.838;2023-01-15T09:40:50;5.67;;;3.40;;
32365;SDS011;18837;46.832;16.838;2023-01-15T09:43:28;5.73;;;3.43;;
32365;SDS011;18837;46.832;16.838;2023-01-15T09:46:15;4.37;;;3.27;;
32365;SDS011;18837;46.832;16.838;2023-01-15T09:55:28;4.60;;;3.03;;
32365;SDS011;18837;46.832;16.838;2023-01-15T09:57:57;4.40;;;3.23;;
32365;SDS011;18837;46.832;16.838;2023-01-15T10:00:26;7.27;;;3.43;;
32365;SDS011;18837;46.832;16.838;2023-01-15T10:03:22;4.60;;;3.00;;
32365;SDS011;18837;46.832;16.838;2023-01-15T10:11:38;5.23;;;3.13;;
32365;SDS011;18837;46.832;16.838;2023-01-15T10:14:31;3.93;;;3.10;;
32365;SDS011;18837;46.832;16.838;2023-01-15T10:17:17;3.77;;;2.80;;
32365;SDS011;18837;46.832;16.838;2023-01-15T10:19:46;4.27;;;2.80;;
32365;SDS011;18837;46.832;16.838;2023-01-15T10:22:19;4.23;;;2.90;;
32365;SDS011;18837;46.832;16.838;2023-01-15T10:27:50;3.83;;;2.67;;
32365;SDS011;18837;46.832;16.838;2023-01-15T10:30:22;4.43;;;2.73;;
32365;SDS011;18837;46.832;16.838;2023-01-15T10:33:18;3.40;;;2.70;;
32365;SDS011;18837;46.832;16.838;2023-01-15T10:38:36;4.03;;;2.97;;
32365;SDS011;18837;46.832;16.838;2023-01-15T10:46:42;3.87;;;2.80;;
32365;SDS011;18837;46.832;16.838;2023-01-15T10:49:15;3.50;;;2.77;;
32365;SDS011;18837;46.832;16.838;2023-01-15T10:51:53;3.87;;;2.47;;
32365;SDS011;18837;46.832;16.838;2023-01-15T10:54:37;2.83;;;2.30;;
32365;SDS011;18837;46.832;16.838;2023-01-15T11:03:23;3.90;;;3.00;;
32365;SDS011;18837;46.832;16.838;2023-01-15T11:06:07;4.43;;;2.90;;
32365;SDS011;18837;46.832;16.838;2023-01-15T11:08:41;3.60;;;2.93;;
32365;SDS011;18837;46.832;16.838;2023-01-15T11:11:50;3.93;;;2.80;;
32365;SDS011;18837;46.832;16.838;2023-01-15T11:14:38;3.30;;;2.57;;
32365;SDS011;18837;46.832;16.838;2023-01-15T11:17:45;3.07;;;2.73;;
32365;SDS011;18837;46.832;16.838;2023-01-15T11:20:30;4.17;;;2.73;;
32365;SDS011;18837;46.832;16.838;2023-01-15T11:23:11;4.03;;;2.80;;
32365;SDS011;18837;46.832;16.838;2023-01-15T11:25:46;3.20;;;2.90;;
32365;SDS011;18837;46.832;16.838;2023-01-15T11:28:14;4.10;;;2.60;;
32365;SDS011;18837;46.832;16.838;2023-01-15T11:30:41;3.40;;;2.53;;
32365;SDS011;18837;46.832;16.838;2023-01-15T11:33:23;4.27;;;2.70;;
32365;SDS011;18837;46.832;16.838;2023-01-15T11:36:06;6.50;;;3.23;;
32365;SDS011;18837;46.832;16.838;2023-01-15T11:38:53;4.43;;;3.13;;
32365;SDS011;18837;46.832;16.838;2023-01-15T11:41:25;3.33;;;2.60;;
32365;SDS011;18837;46.832;16.838;2023-01-15T11:44:12;4.87;;;3.40;;
32365;SDS011;18837;46.832;16.838;2023-01-15T11:46:58;17.73;;;5.33;;
32365;SDS011;18837;46.832;16.838;2023-01-15T11:49:52;12.77;;;4.37;;
32365;SDS011;18837;46.832;16.838;2023-01-15T11:52:51;11.87;;;4.27;;
32365;SDS011;18837;46.832;16.838;2023-01-15T11:55:20;8.03;;;4.73;;
32365;SDS011;18837;46.832;16.838;2023-01-15T11:57:48;15.30;;;5.23;;
32365;SDS011;18837;46.832;16.838;2023-01-15T12:00:23;15.00;;;5.33;;
32365;SDS011;18837;46.832;16.838;2023-01-15T12:02:56;11.17;;;4.57;;
32365;SDS011;18837;46.832;16.838;2023-01-15T12:05:28;8.47;;;4.43;;
32365;SDS011;18837;46.832;16.838;2023-01-15T12:08:00;9.00;;;4.00;;
32365;SDS011;18837;46.832;16.838;2023-01-15T12:11:06;10.10;;;4.13;;
32365;SDS011;18837;46.832;16.838;2023-01-15T12:30:08;5.33;;;3.53;;
32365;SDS011;18837;46.832;16.838;2023-01-15T12:33:02;7.03;;;4.37;;
32365;SDS011;18837;46.832;16.838;2023-01-15T12:35:39;9.03;;;3.83;;
32365;SDS011;18837;46.832;16.838;2023-01-15T12:38:27;6.37;;;3.63;;
32365;SDS011;18837;46.832;16.838;2023-01-15T12:41:17;8.37;;;4.30;;
32365;SDS011;18837;46.832;16.838;2023-01-15T12:47:21;6.93;;;4.07;;
32365;SDS011;18837;46.832;16.838;2023-01-15T12:49:59;11.87;;;4.27;;
32365;SDS011;18837;46.832;16.838;2023-01-15T12:52:38;7.37;;;3.90;;
32365;SDS011;18837;46.832;16.838;2023-01-15T12:55:14;6.73;;;4.13;;
32365;SDS011;18837;46.832;16.838;2023-01-15T12:57:47;5.90;;;4.10;;
32365;SDS011;18837;46.832;16.838;2023-01-15T13:00:20;8.10;;;4.37;;
32365;SDS011;18837;46.832;16.838;2023-01-15T13:05:57;7.13;;;3.90;;
32365;SDS011;18837;46.832;16.838;2023-01-15T13:11:19;6.60;;;4.20;;
32365;SDS011;18837;46.832;16.838;2023-01-15T13:13:44;7.83;;;3.83;;
32365;SDS011;18837;46.832;16.838;2023-01-15T13:22:24;7.80;;;4.43;;
32365;SDS011;18837;46.832;16.838;2023-01-15T13:27:59;8.13;;;3.77;;
32365;SDS011;18837;46.832;16.838;2023-01-15T13:37:11;5.20;;;3.70;;
32365;SDS011;18837;46.832;16.838;2023-01-15T13:39:45;5.50;;;3.70;;
32365;SDS011;18837;46.832;16.838;2023-01-15T13:42:20;5.73;;;3.97;;
32365;SDS011;18837;46.832;16.838;2023-01-15T13:45:04;4.77;;;3.57;;
32365;SDS011;18837;46.832;16.838;2023-01-15T13:47:37;5.70;;;3.90;;
32365;SDS011;18837;46.832;16.838;2023-01-15T13:50:29;5.83;;;3.70;;
32365;SDS011;18837;46.832;16.838;2023-01-15T13:53:07;5.47;;;4.00;;
32365;SDS011;18837;46.832;16.838;2023-01-15T13:55:42;4.90;;;3.80;;
32365;SDS011;18837;46.832;16.838;2023-01-15T13:58:24;5.33;;;4.10;;
32365;SDS011;18837;46.832;16.838;2023-01-15T14:03:36;5.07;;;3.50;;
32365;SDS011;18837;46.832;16.838;2023-01-15T14:09:34;5.30;;;3.77;;
32365;SDS011;18837;46.832;16.838;2023-01-15T14:34:18;7.57;;;4.63;;
32365;SDS011;18837;46.832;16.838;2023-01-15T14:45:38;5.70;;;4.13;;
32365;SDS011;18837;46.832;16.838;2023-01-15T14:51:15;6.70;;;4.60;;
32365;SDS011;18837;46.832;16.838;2023-01-15T14:56:36;7.53;;;4.53;;
32365;SDS011;18837;46.832;16.838;2023-01-15T15:02:20;6.20;;;4.10;;
32365;SDS011;18837;46.832;16.838;2023-01-15T15:07:27;6.03;;;4.63;;
32365;SDS011;18837;46.832;16.838;2023-01-15T15:10:04;5.73;;;4.47;;
32365;SDS011;18837;46.832;16.838;2023-01-15T15:21:42;5.40;;;4.10;;
32365;SDS011;18837;46.832;16.838;2023-01-15T15:24:14;6.63;;;3.93;;
32365;SDS011;18837;46.832;16.838;2023-01-15T15:26:49;6.83;;;4.57;;
32365;SDS011;18837;46.832;16.838;2023-01-15T15:29:16;7.07;;;4.70;;
32365;SDS011;18837;46.832;16.838;2023-01-15T15:31:55;6.70;;;4.40;;
32365;SDS011;18837;46.832;16.838;2023-01-15T15:34:39;5.83;;;4.40;;
32365;SDS011;18837;46.832;16.838;2023-01-15T15:42:34;6.60;;;4.50;;
32365;SDS011;18837;46.832;16.838;2023-01-15T15:45:23;5.53;;;3.90;;
32365;SDS011;18837;46.832;16.838;2023-01-15T15:54:29;5.97;;;4.23;;
32365;SDS011;18837;46.832;16.838;2023-01-15T15:56:57;7.57;;;4.23;;
32365;SDS011;18837;46.832;16.838;2023-01-15T15:59:48;5.07;;;4.20;;
32365;SDS011;18837;46.832;16.838;2023-01-15T16:04:55;5.37;;;4.00;;
32365;SDS011;18837;46.832;16.838;2023-01-15T16:07:33;5.70;;;4.23;;
32365;SDS011;18837;46.832;16.838;2023-01-15T16:10:11;5.40;;;4.00;;
32365;SDS011;18837;46.832;16.838;2023-01-15T16:12:42;6.63;;;4.40;;
32365;SDS011;18837;46.832;16.838;2023-01-15T16:15:20;6.53;;;4.40;;
32365;SDS011;18837;46.832;16.838;2023-01-15T16:18:50;6.77;;;4.10;;
32365;SDS011;18837;46.832;16.838;2023-01-15T16:21:02;5.60;;;4.23;;
32365;SDS011;18837;46.832;16.838;2023-01-15T16:23:40;5.17;;;4.20;;
32365;SDS011;18837;46.832;16.838;2023-01-15T16:29:36;4.97;;;3.73;;
32365;SDS011;18837;46.832;16.838;2023-01-15T16:32:09;5.27;;;4.00;;
32365;SDS011;18837;46.832;16.838;2023-01-15T16:34:38;6.73;;;4.40;;
32365;SDS011;18837;46.832;16.838;2023-01-15T16:37:14;5.33;;;3.97;;
32365;SDS011;18837;46.832;16.838;2023-01-15T16:39:56;6.93;;;4.60;;
32365;SDS011;18837;46.832;16.838;2023-01-15T16:42:37;5.43;;;4.00;;
32365;SDS011;18837;46.832;16.838;2023-01-15T16:45:24;4.97;;;4.20;;
32365;SDS011;18837;46.832;16.838;2023-01-15T16:50:32;5.30;;;3.97;;
32365;SDS011;18837;46.832;16.838;2023-01-15T16:53:00;4.97;;;4.20;;
32365;SDS011;18837;46.832;16.838;2023-01-15T16:55:39;7.65;;;4.38;;
32365;SDS011;18837;46.832;16.838;2023-01-15T16:58:13;7.80;;;4.77;;
32365;SDS011;18837;46.832;16.838;2023-01-15T17:00:42;13.53;;;5.77;;
32365;SDS011;18837;46.832;16.838;2023-01-15T17:03:13;10.37;;;4.60;;
32365;SDS011;18837;46.832;16.838;2023-01-15T17:05:41;10.83;;;4.97;;
32365;SDS011;18837;46.832;16.838;2023-01-15T17:08:15;10.43;;;5.07;;
32365;SDS011;18837;46.832;16.838;2023-01-15T17:10:52;8.10;;;4.43;;
32365;SDS011;18837;46.832;16.838;2023-01-15T17:13:33;8.30;;;4.33;;
32365;SDS011;18837;46.832;16.838;2023-01-15T17:18:47;14.97;;;4.93;;
32365;SDS011;18837;46.832;16.838;2023-01-15T17:21:18;6.97;;;4.17;;
32365;SDS011;18837;46.832;16.838;2023-01-15T17:23:47;8.30;;;4.33;;
32365;SDS011;18837;46.832;16.838;2023-01-15T17:26:25;10.03;;;4.73;;
32365;SDS011;18837;46.832;16.838;2023-01-15T17:32:00;6.03;;;4.73;;
32365;SDS011;18837;46.832;16.838;2023-01-15T17:34:26;8.70;;;4.63;;
32365;SDS011;18837;46.832;16.838;2023-01-15T17:36:52;7.27;;;4.80;;
32365;SDS011;18837;46.832;16.838;2023-01-15T17:39:17;9.10;;;4.20;;
32365;SDS011;18837;46.832;16.838;2023-01-15T17:41:43;7.97;;;4.10;;
32365;SDS011;18837;46.832;16.838;2023-01-15T17:44:09;7.07;;;4.00;;
32365;SDS011;18837;46.832;16.838;2023-01-15T17:49:25;8.30;;;4.53;;
32365;SDS011;18837;46.832;16.838;2023-01-15T17:51:51;7.27;;;4.43;;
32365;SDS011;18837;46.832;16.838;2023-01-15T17:54:17;11.50;;;5.57;;
32365;SDS011;18837;46.832;16.838;2023-01-15T17:57:02;9.67;;;5.03;;
32365;SDS011;18837;46.832;16.838;2023-01-15T17:59:46;7.27;;;4.93;;
32365;SDS011;18837;46.832;16.838;2023-01-15T18:08:43;8.50;;;5.50;;
32365;SDS011;18837;46.832;16.838;2023-01-15T18:11:16;15.80;;;6.13;;
32365;SDS011;18837;46.832;16.838;2023-01-15T18:13:42;9.43;;;5.67;;
32365;SDS011;18837;46.832;16.838;2023-01-15T18:16:08;9.63;;;5.90;;
32365;SDS011;18837;46.832;16.838;2023-01-15T18:18:35;9.90;;;6.20;;
32365;SDS011;18837;46.832;16.838;2023-01-15T18:21:01;10.40;;;6.50;;
32365;SDS011;18837;46.832;16.838;2023-01-15T18:23:28;12.13;;;7.40;;
32365;SDS011;18837;46.832;16.838;2023-01-15T18:25:55;11.60;;;6.57;;
32365;SDS011;18837;46.832;16.838;2023-01-15T18:28:21;11.50;;;7.00;;
32365;SDS011;18837;46.832;16.838;2023-01-15T18:30:47;11.63;;;7.77;;
32365;SDS011;18837;46.832;16.838;2023-01-15T18:33:13;12.60;;;7.10;;
32365;SDS011;18837;46.832;16.838;2023-01-15T18:35:39;11.47;;;7.47;;
32365;SDS011;18837;46.832;16.838;2023-01-15T18:38:05;12.77;;;6.97;;
32365;SDS011;18837;46.832;16.838;2023-01-15T18:40:31;9.57;;;7.20;;
32365;SDS011;18837;46.832;16.838;2023-01-15T18:43:00;10.10;;;6.77;;
32365;SDS011;18837;46.832;16.838;2023-01-15T18:45:45;9.70;;;6.90;;
32365;SDS011;18837;46.832;16.838;2023-01-15T18:48:29;10.03;;;6.27;;
32365;SDS011;18837;46.832;16.838;2023-01-15T18:53:47;8.57;;;6.40;;
32365;SDS011;18837;46.832;16.838;2023-01-15T18:56:13;9.73;;;6.37;;
32365;SDS011;18837;46.832;16.838;2023-01-15T18:58:58;10.73;;;7.33;;
32365;SDS011;18837;46.832;16.838;2023-01-15T19:01:31;9.07;;;7.23;;
32365;SDS011;18837;46.832;16.838;2023-01-15T19:03:57;10.63;;;7.03;;
32365;SDS011;18837;46.832;16.838;2023-01-15T19:12:20;11.27;;;6.93;;
32365;SDS011;18837;46.832;16.838;2023-01-15T19:14:46;9.77;;;6.70;;
32365;SDS011;18837;46.832;16.838;2023-01-15T19:17:36;10.20;;;7.37;;
32365;SDS011;18837;46.832;16.838;2023-01-15T19:20:20;9.50;;;6.90;;
32365;SDS011;18837;46.832;16.838;2023-01-15T19:22:46;10.10;;;7.13;;